Time;durP1;ratioP1;P1;durP2;ratioP2;P2;SDS_P1;SDS_P2;PMS_P1;PMS_P2;Temp;Humidity;BMP_temperature;BMP_pressure;BME280_temperature;BME280_humidity;BME280_pressure;Samples;Min_cycle;Max_cycle;Signal;HPM_P1;HPM_P2
2022/10/10 00:01:33;;;;;;;7.25;4.63;;;;;;;11.64;65.50;101510.31;5039704;28;20116;-73
2022/10/10 00:03:59;;;;;;;8.85;4.80;;;;;;;11.60;65.71;101508.47;5052638;28;20059;-73
2022/10/10 00:06:25;;;;;;;8.77;5.07;;;;;;;11.57;65.71;101508.34;5033752;28;20041;-73
2022/10/10 00:08:51;;;;;;;7.65;4.90;;;;;;;11.52;65.95;101500.47;5037882;28;20391;-73
2022/10/10 00:11:20;;;;;;;7.63;4.90;;;;;;;11.52;65.90;101499.59;5034255;28;20038;-73
2022/10/10 00:13:46;;;;;;;7.45;5.05;;;;;;;11.54;65.95;101503.13;5040442;28;20036;-73
2022/10/10 00:16:11;;;;;;;9.20;4.95;;;;;;;11.47;66.13;101501.16;5050212;28;20085;-73
2022/10/10 00:18:37;;;;;;;7.03;4.85;;;;;;;11.53;66.23;101499.66;5058359;28;20058;-73
2022/10/10 00:21:03;;;;;;;8.48;4.85;;;;;;;11.49;66.17;101502.09;5060164;28;20039;-74
2022/10/10 00:23:28;;;;;;;7.93;4.72;;;;;;;11.48;66.34;101497.75;5038498;28;20440;-73
2022/10/10 00:25:54;;;;;;;8.27;4.70;;;;;;;11.49;66.20;101497.81;5046923;28;20099;-73
2022/10/10 00:28:19;;;;;;;8.43;4.80;;;;;;;11.45;66.46;101495.94;5049013;28;20042;-73
2022/10/10 00:30:45;;;;;;;8.80;4.78;;;;;;;11.38;66.66;101493.09;5049715;28;20390;-73
2022/10/10 00:33:11;;;;;;;8.27;4.93;;;;;;;11.39;66.68;101493.16;5055095;28;20060;-74
2022/10/10 00:35:36;;;;;;;10.15;5.07;;;;;;;11.39;66.83;101492.28;5040698;28;20056;-74
2022/10/10 00:38:02;;;;;;;8.20;5.30;;;;;;;11.34;67.02;101496.38;5045991;28;20039;-73
2022/10/10 00:40:28;;;;;;;7.80;4.93;;;;;;;11.31;66.79;101491.16;5043324;28;20498;-73
2022/10/10 00:42:54;;;;;;;8.25;4.82;;;;;;;11.33;66.86;101489.50;5044165;28;20052;-73
2022/10/10 00:45:28;;;;;;;7.57;5.15;;;;;;;11.35;66.84;101487.88;5026191;28;20487;-73
2022/10/10 00:48:07;;;;;;;11.70;5.43;;;;;;;11.31;67.40;101489.44;5043106;28;20044;-73
2022/10/10 00:50:39;;;;;;;7.93;5.00;;;;;;;11.32;66.96;101487.75;5041302;28;20053;-73
2022/10/10 00:53:07;;;;;;;11.57;5.07;;;;;;;11.21;67.37;101480.50;5045333;28;20029;-73
2022/10/10 00:55:33;;;;;;;9.85;4.82;;;;;;;11.23;67.46;101478.00;5041660;28;20561;-73
2022/10/10 00:58:00;;;;;;;8.02;5.00;;;;;;;11.20;67.62;101477.88;5043046;28;20447;-73
2022/10/10 01:00:25;;;;;;;11.15;4.82;;;;;;;11.18;67.43;101471.81;5038605;28;20076;-73
2022/10/10 01:02:51;;;;;;;16.58;5.20;;;;;;;11.15;67.94;101477.72;5025667;28;20041;-73
2022/10/10 01:05:16;;;;;;;7.55;4.85;;;;;;;11.14;67.84;101480.25;5047731;28;20506;-74
2022/10/10 01:07:43;;;;;;;7.63;5.43;;;;;;;11.12;68.06;101469.91;5040003;28;20040;-73
2022/10/10 01:10:13;;;;;;;9.40;5.25;;;;;;;11.17;68.00;101467.50;5052237;28;20652;-73
2022/10/10 01:13:03;;;;;;;11.40;5.20;;;;;;;11.21;67.59;101472.78;5043843;28;20045;-74
2022/10/10 01:15:47;;;;;;;7.55;5.13;;;;;;;11.11;68.16;101465.59;5041819;28;20105;-73
2022/10/10 01:18:43;;;;;;;7.32;5.35;;;;;;;11.18;67.75;101462.41;5053974;28;20100;-73
2022/10/10 01:21:22;;;;;;;8.57;5.55;;;;;;;11.17;67.82;101468.38;5040423;28;20026;-73
2022/10/10 01:24:18;;;;;;;8.07;5.35;;;;;;;11.22;67.33;101458.22;5054782;28;20017;-74
2022/10/10 01:26:59;;;;;;;10.27;5.05;;;;;;;11.11;68.02;101457.00;5046711;28;20033;-74
2022/10/10 01:29:37;;;;;;;9.57;5.50;;;;;;;11.07;68.25;101461.13;5049538;28;20391;-73
2022/10/10 01:32:20;;;;;;;9.50;5.40;;;;;;;11.02;68.47;101462.66;5039946;28;20033;-73
2022/10/10 01:35:05;;;;;;;10.15;5.50;;;;;;;11.00;68.32;101460.06;5053167;28;20117;-73
2022/10/10 01:38:01;;;;;;;10.07;5.68;;;;;;;11.05;68.35;101457.66;5056625;28;20047;-73
2022/10/10 01:40:38;;;;;;;12.73;5.75;;;;;;;11.03;68.67;101454.13;5056020;28;20036;-74
2022/10/10 01:43:07;;;;;;;9.57;5.55;;;;;;;10.95;68.73;101455.56;5057291;28;20076;-73
2022/10/10 01:45:33;;;;;;;13.48;5.47;;;;;;;10.94;68.91;101454.69;5048638;28;20117;-73
2022/10/10 01:48:04;;;;;;;9.55;4.88;;;;;;;10.94;69.05;101452.09;5051127;28;20777;-74
2022/10/10 01:50:34;;;;;;;8.25;5.32;;;;;;;10.91;69.24;101451.09;5052587;28;20036;-73
2022/10/10 01:53:14;;;;;;;10.10;5.30;;;;;;;10.98;69.18;101447.94;5056570;28;20051;-73
2022/10/10 01:55:54;;;;;;;13.27;5.18;;;;;;;10.95;69.04;101441.00;5052713;28;20044;-73
2022/10/10 01:58:48;;;;;;;8.18;5.45;;;;;;;10.91;69.33;101443.38;5059345;28;20035;-73
2022/10/10 02:01:35;;;;;;;8.48;5.18;;;;;;;10.90;69.18;101437.38;5028583;28;20035;-74
2022/10/10 02:04:06;;;;;;;8.43;5.20;;;;;;;10.89;69.44;101432.19;5053181;28;20029;-74
2022/10/10 02:06:40;;;;;;;10.15;5.10;;;;;;;10.89;69.54;101430.47;5041634;28;20049;-73
2022/10/10 02:09:11;;;;;;;7.95;4.97;;;;;;;10.86;69.91;101432.06;5029300;28;20032;-73
2022/10/10 02:11:38;;;;;;;8.93;5.50;;;;;;;10.84;69.61;101423.41;5046729;28;20040;-73
2022/10/10 02:14:19;;;;;;;9.57;4.88;;;;;;;10.88;69.51;101420.13;5027510;28;20990;-73
2022/10/10 02:16:47;;;;;;;9.63;5.45;;;;;;;10.78;69.79;101415.47;5051020;28;20029;-73
2022/10/10 02:19:17;;;;;;;7.88;4.82;;;;;;;10.79;69.94;101423.25;5045461;28;20048;-73
2022/10/10 02:21:44;;;;;;;8.73;5.20;;;;;;;10.77;70.04;101419.75;5043611;28;20025;-74
2022/10/10 02:24:11;;;;;;;7.07;4.97;;;;;;;10.75;70.11;101418.84;5035820;28;20068;-74
2022/10/10 02:26:39;;;;;;;9.52;5.30;;;;;;;10.76;70.09;101412.00;5053807;28;20112;-73
2022/10/10 02:29:09;;;;;;;9.00;4.95;;;;;;;10.74;70.48;101415.38;5060351;28;20483;-73
2022/10/10 02:32:06;;;;;;;8.18;5.00;;;;;;;10.84;69.45;101410.56;5042913;28;20502;-73
2022/10/10 02:34:39;;;;;;;8.02;5.28;;;;;;;10.74;70.18;101414.50;5042009;28;20117;-73
2022/10/10 02:37:11;;;;;;;7.60;5.43;;;;;;;10.72;70.06;101403.28;5054338;28;20048;-73
2022/10/10 02:39:44;;;;;;;8.55;5.38;;;;;;;10.71;70.31;101404.09;5057143;28;20028;-73
2022/10/10 02:42:13;;;;;;;8.40;5.18;;;;;;;10.64;70.42;101402.13;5054855;28;20025;-73
2022/10/10 02:44:39;;;;;;;7.40;4.93;;;;;;;10.64;70.43;101395.28;5056602;28;20525;-73
2022/10/10 02:47:05;;;;;;;7.68;4.80;;;;;;;10.66;70.48;101400.47;5054733;28;20037;-73
2022/10/10 02:49:32;;;;;;;11.75;5.68;;;;;;;10.67;70.71;101392.81;5061458;28;20082;-73
2022/10/10 02:51:58;;;;;;;9.57;5.20;;;;;;;10.61;70.76;101392.59;5050981;28;20082;-73
2022/10/10 02:54:24;;;;;;;10.50;5.20;;;;;;;10.63;70.76;101384.94;5052836;28;20449;-73
2022/10/10 02:56:49;;;;;;;7.80;5.10;;;;;;;10.61;70.64;101392.59;5047487;28;20041;-73
2022/10/10 02:59:16;;;;;;;11.70;5.07;;;;;;;10.56;70.71;101386.44;5045536;28;20384;-73
2022/10/10 03:01:42;;;;;;;9.18;5.45;;;;;;;10.59;71.09;101389.09;5048141;28;20072;-73
2022/10/10 03:04:07;;;;;;;7.05;4.63;;;;;;;10.58;71.24;101384.78;5043451;28;20392;-73
2022/10/10 03:06:33;;;;;;;9.82;5.13;;;;;;;10.56;71.01;101383.84;5041395;28;20068;-73
2022/10/10 03:08:58;;;;;;;7.82;5.03;;;;;;;10.54;71.05;101380.34;5041260;28;20503;-74
2022/10/10 03:11:23;;;;;;;9.07;5.03;;;;;;;10.57;71.21;101379.59;5051808;28;20028;-73
2022/10/10 03:13:49;;;;;;;6.50;5.07;;;;;;;10.55;71.22;101374.38;5049809;28;20081;-73
2022/10/10 03:16:14;;;;;;;9.00;5.20;;;;;;;10.47;71.58;101371.53;5043924;28;20037;-73
2022/10/10 03:18:40;;;;;;;7.65;5.07;;;;;;;10.56;71.65;101377.84;5044987;28;20033;-73
2022/10/10 03:21:05;;;;;;;8.90;5.03;;;;;;;10.50;71.52;101370.78;5028388;28;20036;-73
2022/10/10 03:23:31;;;;;;;10.73;5.43;;;;;;;10.54;71.52;101374.31;5050856;28;20029;-73
2022/10/10 03:25:57;;;;;;;8.98;5.30;;;;;;;10.50;71.58;101372.47;5042130;28;20033;-73
2022/10/10 03:28:22;;;;;;;9.25;4.93;;;;;;;10.47;71.86;101374.09;5041582;28;20067;-73
2022/10/10 03:30:48;;;;;;;7.72;4.90;;;;;;;10.48;71.81;101380.09;5041314;28;20029;-73
2022/10/10 03:33:13;;;;;;;8.52;4.97;;;;;;;10.46;71.82;101376.63;5024794;28;20035;-73
2022/10/10 03:35:39;;;;;;;11.45;4.97;;;;;;;10.43;71.87;101376.50;5020099;28;20049;-73
2022/10/10 03:38:05;;;;;;;9.75;5.30;;;;;;;10.40;72.04;101371.25;5042709;28;20136;-73
2022/10/10 03:40:31;;;;;;;7.43;4.90;;;;;;;10.40;72.01;101377.25;5034806;28;20048;-73
2022/10/10 03:42:57;;;;;;;8.10;5.15;;;;;;;10.42;71.93;101377.31;5018115;28;20027;-73
2022/10/10 03:45:22;;;;;;;9.15;4.47;;;;;;;10.38;72.03;101375.47;5040242;28;20030;-73
2022/10/10 03:47:48;;;;;;;9.70;4.68;;;;;;;10.38;71.73;101375.47;5039849;28;20032;-74
2022/10/10 03:50:13;;;;;;;9.48;5.07;;;;;;;10.34;71.96;101374.47;5056084;28;20113;-73
2022/10/10 03:52:39;;;;;;;10.60;5.53;;;;;;;10.37;72.06;101378.84;5045360;28;20367;-73
2022/10/10 03:55:05;;;;;;;7.63;5.00;;;;;;;10.36;72.17;101380.53;5048384;28;20027;-73
2022/10/10 03:57:30;;;;;;;8.80;5.00;;;;;;;10.34;72.09;101373.59;5037240;28;20040;-73
2022/10/10 03:59:56;;;;;;;8.60;5.07;;;;;;;10.34;72.33;101378.75;5051265;28;20093;-73
2022/10/10 04:02:21;;;;;;;8.15;5.20;;;;;;;10.31;72.35;101373.47;5057429;28;20028;-73
2022/10/10 04:04:46;;;;;;;6.35;4.57;;;;;;;10.28;72.84;101370.81;5052713;28;20451;-73
2022/10/10 04:07:12;;;;;;;9.57;4.63;;;;;;;10.30;72.90;101374.28;5043667;28;20053;-73
2022/10/10 04:09:37;;;;;;;7.32;4.63;;;;;;;10.26;73.07;101373.31;5051635;28;20036;-74
2022/10/10 04:12:03;;;;;;;9.25;4.78;;;;;;;10.21;73.41;101372.22;5029504;28;20033;-73
2022/10/10 04:14:28;;;;;;;7.88;4.97;;;;;;;10.28;73.22;101370.81;5038339;28;20037;-73
2022/10/10 04:16:53;;;;;;;8.43;4.60;;;;;;;10.21;73.47;101361.97;5050514;28;20035;-73
2022/10/10 04:19:19;;;;;;;8.02;4.78;;;;;;;10.24;73.31;101374.06;5042380;28;20588;-73
2022/10/10 04:21:44;;;;;;;9.98;4.70;;;;;;;10.18;73.40;101365.25;5041433;28;20021;-73
2022/10/10 04:24:10;;;;;;;10.75;5.15;;;;;;;10.24;73.56;101374.06;5043028;28;20119;-73
2022/10/10 04:26:36;;;;;;;10.95;4.82;;;;;;;10.21;73.56;101370.53;5039490;28;20036;-73
2022/10/10 04:29:01;;;;;;;8.60;4.85;;;;;;;10.18;73.73;101362.69;5038429;28;20484;-73
2022/10/10 04:31:27;;;;;;;10.15;5.20;;;;;;;10.17;73.97;101368.66;5044597;28;20032;-73
2022/10/10 04:33:52;;;;;;;10.25;4.68;;;;;;;10.19;73.60;101369.63;5045124;28;20025;-73
2022/10/10 04:36:17;;;;;;;6.50;4.50;;;;;;;10.18;73.66;101372.97;5056114;28;20024;-73
2022/10/10 04:38:43;;;;;;;8.20;4.50;;;;;;;10.15;73.76;101367.75;5034022;28;20020;-73
2022/10/10 04:41:09;;;;;;;10.95;5.00;;;;;;;10.11;74.12;101363.28;5035676;28;20399;-73
2022/10/10 04:43:34;;;;;;;7.60;4.45;;;;;;;10.07;74.39;101365.69;5042030;28;20040;-73
2022/10/10 04:45:59;;;;;;;8.40;4.40;;;;;;;10.09;74.15;101367.50;5047592;28;20024;-73
2022/10/10 04:48:25;;;;;;;8.45;4.45;;;;;;;10.06;74.42;101363.94;5043916;28;20053;-74
2022/10/10 04:50:57;;;;;;;8.02;4.60;;;;;;;10.08;74.49;101357.19;5039015;28;20036;-73
2022/10/10 04:53:23;;;;;;;9.10;4.65;;;;;;;10.09;74.69;101364.06;5041360;28;20075;-73
2022/10/10 04:55:49;;;;;;;10.40;4.95;;;;;;;10.07;74.48;101365.69;5041337;28;20037;-73
2022/10/10 04:58:14;;;;;;;9.85;4.88;;;;;;;10.06;74.87;101364.81;5048969;28;20025;-74
2022/10/10 05:00:40;;;;;;;8.07;4.20;;;;;;;10.06;74.46;101364.81;5055106;28;20032;-73
2022/10/10 05:03:06;;;;;;;8.40;4.63;;;;;;;9.98;74.71;101368.78;5052231;28;20692;-73
2022/10/10 05:05:31;;;;;;;7.78;4.40;;;;;;;10.00;74.99;101359.44;5030703;28;20386;-73
2022/10/10 05:07:57;;;;;;;7.93;5.07;;;;;;;9.98;75.00;101357.63;5042374;28;20457;-73
2022/10/10 05:10:23;;;;;;;8.52;4.30;;;;;;;9.99;74.83;101355.13;5056546;28;20071;-73
2022/10/10 05:12:49;;;;;;;8.23;4.57;;;;;;;9.93;74.98;101349.75;5040126;28;20119;-73
2022/10/10 05:15:14;;;;;;;6.70;4.30;;;;;;;9.89;75.49;101356.47;5053362;28;20124;-74
2022/10/10 05:17:40;;;;;;;7.47;4.38;;;;;;;9.92;75.30;101358.28;5053124;28;20051;-73
2022/10/10 05:20:05;;;;;;;8.68;4.65;;;;;;;9.92;75.30;101356.56;5055234;28;20024;-73
2022/10/10 05:22:31;;;;;;;9.52;4.78;;;;;;;9.86;75.55;101351.19;5055361;28;20021;-73
2022/10/10 05:24:58;;;;;;;12.95;4.68;;;;;;;9.90;75.36;101352.22;5046713;28;20156;-73
2022/10/10 05:27:24;;;;;;;6.18;4.25;;;;;;;9.90;75.87;101360.78;5050637;28;20043;-73
2022/10/10 05:29:49;;;;;;;8.40;4.25;;;;;;;9.86;75.93;101356.34;5044971;28;20030;-73
2022/10/10 05:32:15;;;;;;;12.35;4.60;;;;;;;9.91;76.04;101359.09;5033245;28;20078;-73
2022/10/10 05:34:40;;;;;;;7.72;4.00;;;;;;;9.87;75.84;101359.78;5044575;28;20120;-73
2022/10/10 05:37:05;;;;;;;6.25;4.15;;;;;;;9.91;75.93;101364.22;5046374;28;20120;-73
2022/10/10 05:39:31;;;;;;;12.02;4.35;;;;;;;9.84;76.52;101362.25;5060070;28;20031;-73
2022/10/10 05:41:56;;;;;;;8.13;4.30;;;;;;;9.83;76.48;101356.25;5046901;28;20025;-73
2022/10/10 05:44:22;;;;;;;7.88;4.20;;;;;;;9.83;76.60;101360.50;5062028;28;20025;-73
2022/10/10 05:46:47;;;;;;;9.70;4.00;;;;;;;9.84;76.69;101355.41;5059323;28;20482;-73
2022/10/10 05:49:13;;;;;;;12.07;4.45;;;;;;;9.90;76.76;101365.94;5061506;28;20536;-73
2022/10/10 05:51:39;;;;;;;7.18;3.92;;;;;;;9.92;76.96;101363.41;5057433;28;20483;-73
2022/10/10 05:54:04;;;;;;;9.55;4.50;;;;;;;9.90;76.79;101368.50;5050145;28;20021;-73
2022/10/10 05:56:30;;;;;;;8.60;4.38;;;;;;;9.84;76.96;101359.69;5056400;28;20403;-73
2022/10/10 05:58:55;;;;;;;8.23;4.22;;;;;;;9.87;76.75;101364.91;5031072;28;20032;-73
2022/10/10 06:01:20;;;;;;;8.20;4.60;;;;;;;9.84;77.23;101370.81;5058932;28;20077;-74
2022/10/10 06:03:51;;;;;;;13.85;5.95;;;;;;;9.86;77.12;101370.88;5060058;28;20067;-74
2022/10/10 06:06:17;;;;;;;11.20;5.80;;;;;;;9.83;77.52;101366.50;5051753;28;20029;-74
2022/10/10 06:08:43;;;;;;;10.60;5.88;;;;;;;9.84;78.00;101364.81;5050958;28;20032;-73
2022/10/10 06:11:09;;;;;;;12.98;5.90;;;;;;;9.82;78.01;101366.44;5055418;28;20025;-73
2022/10/10 06:13:37;;;;;;;13.07;6.13;;;;;;;9.82;77.89;101366.44;5040235;28;20410;-73
2022/10/10 06:16:02;;;;;;;13.77;6.35;;;;;;;9.80;78.15;101363.81;5049675;28;20444;-73
2022/10/10 06:18:28;;;;;;;10.77;5.72;;;;;;;9.85;78.19;101369.13;5043150;28;20054;-73
2022/10/10 06:20:54;;;;;;;12.05;5.78;;;;;;;9.80;78.47;101366.38;5028984;28;20036;-73
2022/10/10 06:23:19;;;;;;;11.52;5.70;;;;;;;9.82;78.58;101375.00;5052550;28;20029;-73
2022/10/10 06:25:45;;;;;;;11.95;5.32;;;;;;;9.89;78.07;101382.16;5067802;28;20028;-73
2022/10/10 06:28:11;;;;;;;9.82;5.70;;;;;;;9.86;78.72;101381.16;5053495;28;20025;-73
2022/10/10 06:30:41;;;;;;;11.07;5.20;;;;;;;9.88;78.68;101387.22;5047689;28;20372;-73
2022/10/10 06:33:06;;;;;;;12.30;5.32;;;;;;;9.84;79.03;101387.94;5048493;28;20029;-73
2022/10/10 06:35:32;;;;;;;9.25;4.88;;;;;;;9.83;79.13;101384.50;5042998;28;20037;-73
2022/10/10 06:37:57;;;;;;;11.30;4.78;;;;;;;9.86;79.36;101384.59;5051687;28;20043;-73
2022/10/10 06:40:22;;;;;;;11.57;5.07;;;;;;;9.87;79.43;101391.47;5046187;28;20072;-73
2022/10/10 06:42:48;;;;;;;8.40;5.15;;;;;;;9.92;79.66;101381.38;5031207;28;20104;-74
2022/10/10 06:45:13;;;;;;;10.93;5.45;;;;;;;9.92;79.92;101386.53;5033545;28;20444;-74
2022/10/10 06:47:38;;;;;;;8.85;4.60;;;;;;;9.96;80.50;101382.41;5047237;28;20034;-70
2022/10/10 06:50:04;;;;;;;9.50;4.90;;;;;;;10.00;80.32;101385.13;5043283;28;20037;-72
2022/10/10 06:52:30;;;;;;;12.98;5.30;;;;;;;10.07;80.35;101391.38;5045558;28;20124;-72
2022/10/10 06:54:55;;;;;;;11.18;5.32;;;;;;;10.12;79.79;101393.31;5028708;28;20029;-73
2022/10/10 06:57:20;;;;;;;13.82;4.80;;;;;;;10.18;79.99;101392.66;5039015;28;20025;-73
2022/10/10 06:59:46;;;;;;;11.88;5.07;;;;;;;10.21;80.52;101388.53;5037046;28;20139;-74
2022/10/10 07:02:12;;;;;;;11.50;5.07;;;;;;;10.23;80.88;101388.63;5038569;28;20462;-75
2022/10/10 07:04:38;;;;;;;11.90;4.72;;;;;;;10.26;81.10;101388.75;5048638;28;20071;-75
2022/10/10 07:07:03;;;;;;;10.73;4.85;;;;;;;10.34;80.91;101386.44;5049442;28;20445;-75
2022/10/10 07:09:29;;;;;;;11.07;4.72;;;;;;;10.32;81.32;101385.53;5019208;28;20115;-75
2022/10/10 07:11:54;;;;;;;9.45;4.38;;;;;;;10.33;82.03;101394.97;5055471;28;20036;-75
2022/10/10 07:14:19;;;;;;;12.88;5.82;;;;;;;10.38;82.35;101394.34;5046412;28;20029;-75
2022/10/10 07:16:45;;;;;;;9.07;4.95;;;;;;;10.44;82.42;101392.00;5052009;28;20450;-75
2022/10/10 07:19:10;;;;;;;9.88;4.97;;;;;;;10.48;82.41;101401.56;5044431;28;20029;-75
2022/10/10 07:21:35;;;;;;;10.65;5.10;;;;;;;10.53;82.69;101406.88;5042562;28;20033;-75
2022/10/10 07:24:01;;;;;;;11.15;4.70;;;;;;;10.56;83.30;101407.00;5042062;28;20056;-74
2022/10/10 07:26:29;;;;;;;11.18;4.82;;;;;;;10.60;83.55;101398.56;5047344;28;20025;-75
2022/10/10 07:28:55;;;;;;;10.80;4.80;;;;;;;10.65;83.38;101397.03;5055049;28;20120;-75
2022/10/10 07:31:21;;;;;;;9.82;4.88;;;;;;;10.72;83.42;101400.69;5048611;28;20108;-75
2022/10/10 07:33:48;;;;;;;11.10;5.45;;;;;;;10.77;83.96;101404.31;5050765;28;20482;-75
2022/10/10 07:36:13;;;;;;;11.75;5.55;;;;;;;10.80;84.29;101398.38;5040656;28;20026;-74
2022/10/10 07:38:39;;;;;;;9.68;5.30;;;;;;;10.87;83.92;101403.84;5048683;28;20082;-75
2022/10/10 07:41:10;;;;;;;11.90;5.25;;;;;;;10.93;84.43;101405.75;5039960;28;20476;-74
2022/10/10 07:43:36;;;;;;;17.83;5.07;;;;;;;11.00;83.86;101415.44;5041998;28;20120;-75
2022/10/10 07:46:03;;;;;;;14.70;5.53;;;;;;;11.07;84.78;101413.94;5038248;28;20107;-75
2022/10/10 07:48:29;;;;;;;14.38;5.18;;;;;;;11.13;84.54;101419.31;5034794;28;20041;-74
2022/10/10 07:50:55;;;;;;;7.97;5.00;;;;;;;11.16;84.19;101421.97;5037428;28;20032;-75
2022/10/10 07:53:20;;;;;;;11.43;5.50;;;;;;;11.24;84.69;101434.28;5040690;28;20034;-75
2022/10/10 07:55:45;;;;;;;12.90;5.50;;;;;;;11.31;84.42;101434.50;5028182;28;20086;-74
2022/10/10 07:58:11;;;;;;;11.98;5.18;;;;;;;11.40;84.65;101434.81;5039750;28;20687;-74
2022/10/10 08:00:40;;;;;;;9.18;5.30;;;;;;;11.51;83.89;101433.47;5047476;28;20063;-74
2022/10/10 08:03:07;;;;;;;10.77;5.35;;;;;;;11.56;84.02;101437.06;5031542;28;20040;-75
2022/10/10 08:05:32;;;;;;;10.32;5.47;;;;;;;11.70;84.06;101440.97;5049637;28;20375;-74
2022/10/10 08:07:58;;;;;;;9.23;5.05;;;;;;;11.84;83.29;101443.16;5045800;28;20032;-74
2022/10/10 08:10:23;;;;;;;10.77;5.38;;;;;;;12.02;82.54;101444.63;5029033;28;20395;-74
2022/10/10 08:12:49;;;;;;;11.95;5.15;;;;;;;12.16;82.55;101442.47;5048147;28;20032;-74
2022/10/10 08:15:14;;;;;;;12.63;5.90;;;;;;;12.29;82.02;101439.44;5049815;28;20383;-74
2022/10/10 08:17:40;;;;;;;10.27;5.50;;;;;;;12.45;81.62;101434.75;5044458;28;20052;-74
2022/10/10 08:20:05;;;;;;;14.57;5.15;;;;;;;12.61;81.87;101436.91;5023112;28;20487;-74
2022/10/10 08:22:31;;;;;;;13.05;4.90;;;;;;;12.76;80.92;101428.75;5045893;28;20029;-74
2022/10/10 08:24:56;;;;;;;13.60;5.38;;;;;;;12.89;80.44;101429.13;5051601;28;20762;-73
2022/10/10 08:27:21;;;;;;;17.05;5.13;;;;;;;12.95;79.35;101436.16;5061032;28;20028;-74
2022/10/10 08:29:47;;;;;;;9.50;4.40;;;;;;;13.00;79.49;101436.31;5053438;28;20115;-74
2022/10/10 08:32:12;;;;;;;9.43;4.47;;;;;;;13.07;79.26;101433.06;5055852;28;20564;-74
2022/10/10 08:34:37;;;;;;;9.27;4.13;;;;;;;13.15;79.19;101439.28;5036730;28;20032;-74
2022/10/10 08:37:03;;;;;;;9.18;4.80;;;;;;;13.25;79.36;101436.16;5036809;28;20167;-74
2022/10/10 08:39:28;;;;;;;8.32;4.68;;;;;;;13.34;78.68;101438.09;5036730;28;20037;-74
2022/10/10 08:41:56;;;;;;;9.52;4.70;;;;;;;13.53;78.26;101430.00;5022537;28;20087;-74
2022/10/10 08:44:29;;;;;;;9.02;4.70;;;;;;;13.69;78.41;101437.28;5039892;28;20382;-74
2022/10/10 08:47:13;;;;;;;12.05;4.50;;;;;;;13.90;77.77;101436.94;5040619;28;20029;-74
2022/10/10 08:49:53;;;;;;;9.10;4.40;;;;;;;14.07;77.89;101436.41;5035250;28;20079;-74
2022/10/10 08:52:34;;;;;;;10.95;4.25;;;;;;;14.23;76.69;101443.69;5038584;28;20033;-72
2022/10/10 08:55:02;;;;;;;9.93;4.63;;;;;;;14.41;75.64;101432.88;5037885;28;20152;-73
2022/10/10 08:57:32;;;;;;;9.65;4.40;;;;;;;14.44;75.65;101436.41;5043304;28;20024;-72
2022/10/10 09:00:04;;;;;;;10.63;4.40;;;;;;;14.49;75.42;101429.63;5033850;28;20069;-70
2022/10/10 09:02:51;;;;;;;15.88;4.30;;;;;;;14.62;75.57;101433.38;5053566;28;20037;-72
2022/10/10 09:05:20;;;;;;;10.90;4.15;;;;;;;14.64;75.06;101436.00;5039879;28;20518;-71
2022/10/10 09:08:09;;;;;;;11.38;4.85;;;;;;;14.71;75.02;101443.03;5049094;28;20510;-71
2022/10/10 09:10:54;;;;;;;8.27;4.32;;;;;;;14.80;75.04;101450.09;5032917;28;20078;-71
2022/10/10 09:13:28;;;;;;;9.88;3.97;;;;;;;14.77;74.78;101456.09;5032817;28;20038;-72
2022/10/10 09:15:58;;;;;;;8.73;4.03;;;;;;;14.74;74.53;101451.75;5052935;28;20032;-71
2022/10/10 09:18:42;;;;;;;10.20;4.03;;;;;;;14.78;74.38;101460.44;5039369;28;20171;-71
2022/10/10 09:21:16;;;;;;;7.93;3.90;;;;;;;14.84;74.85;101447.59;5055358;28;20078;-71
2022/10/10 09:23:44;;;;;;;11.40;4.15;;;;;;;14.89;74.42;101458.94;5054621;28;20021;-71
2022/10/10 09:26:17;;;;;;;7.83;4.10;;;;;;;14.96;74.45;101459.94;5047289;28;20108;-71
2022/10/10 09:29:14;;;;;;;7.95;4.05;;;;;;;15.05;74.22;101464.44;5046545;28;20056;-72
2022/10/10 09:31:45;;;;;;;10.32;4.00;;;;;;;15.06;74.50;101467.03;5049506;28;20369;-72
2022/10/10 09:34:38;;;;;;;8.43;4.05;;;;;;;15.10;73.49;101467.94;5041610;28;20044;-71
2022/10/10 09:37:13;;;;;;;8.50;3.67;;;;;;;15.10;74.18;101462.78;5053153;28;20028;-72
2022/10/10 09:40:08;;;;;;;10.43;3.88;;;;;;;15.16;74.61;101468.06;5047090;28;20375;-71
2022/10/10 09:42:38;;;;;;;7.90;3.65;;;;;;;15.17;74.16;101475.03;5041082;28;20068;-71
2022/10/10 09:45:17;;;;;;;10.73;3.75;;;;;;;15.15;73.56;101480.16;5048809;28;20025;-69
2022/10/10 09:47:42;;;;;;;8.13;3.88;;;;;;;15.16;73.83;101487.06;5048201;28;20739;-71
2022/10/10 09:50:12;;;;;;;11.43;4.05;;;;;;;15.18;73.94;101490.59;5047123;28;20032;-71
2022/10/10 09:52:37;;;;;;;8.57;4.47;;;;;;;15.19;73.17;101486.28;5035052;28;20482;-67
2022/10/10 09:55:21;;;;;;;14.27;4.10;;;;;;;15.23;73.56;101485.50;5045318;28;20028;-70
2022/10/10 09:57:50;;;;;;;10.93;4.50;;;;;;;15.22;73.54;101488.91;5047280;28;20025;-71
2022/10/10 10:00:18;;;;;;;10.93;4.00;;;;;;;15.21;73.51;101488.03;5048822;28;20044;-70
2022/10/10 10:02:47;;;;;;;10.73;3.97;;;;;;;15.18;73.08;101485.41;5047722;28;20036;-71
2022/10/10 10:05:26;;;;;;;14.55;4.55;;;;;;;15.21;74.21;101487.16;5039499;28;20112;-70
2022/10/10 10:07:52;;;;;;;11.75;4.03;;;;;;;15.16;74.96;101487.06;5044883;28;20052;-70
2022/10/10 10:10:21;;;;;;;9.90;3.70;;;;;;;15.18;74.52;101492.31;5025511;28;20033;-71
2022/10/10 10:12:47;;;;;;;12.88;4.07;;;;;;;15.20;74.44;101488.03;5044980;28;20079;-71
2022/10/10 10:15:18;;;;;;;15.02;4.05;;;;;;;15.17;74.43;101480.22;5045502;28;20427;-70
2022/10/10 10:17:43;;;;;;;18.20;4.70;;;;;;;15.19;74.14;101486.28;5025472;28;20561;-69
2022/10/10 10:20:39;;;;;;;12.80;4.10;;;;;;;15.22;73.96;101487.19;5043010;28;20112;-69
2022/10/10 10:23:20;;;;;;;10.60;4.07;;;;;;;15.20;74.16;101495.78;5043047;28;20041;-69
2022/10/10 10:25:56;;;;;;;10.68;4.20;;;;;;;15.24;74.47;101498.47;5044623;28;20013;-69
2022/10/10 10:28:22;;;;;;;12.20;4.43;;;;;;;15.25;74.12;101492.44;5041610;28;20052;-69
2022/10/10 10:30:47;;;;;;;11.55;3.75;;;;;;;15.33;74.95;101495.16;5048120;28;20431;-70
2022/10/10 10:33:39;;;;;;;8.68;3.90;;;;;;;15.50;74.67;101490.31;5052326;28;20052;-69
2022/10/10 10:36:32;;;;;;;9.35;3.53;;;;;;;15.65;74.71;101501.00;5032214;28;20060;-69
2022/10/10 10:39:16;;;;;;;9.20;4.03;;;;;;;15.77;74.25;101502.88;5045007;28;20017;-69
2022/10/10 10:41:49;;;;;;;8.73;3.80;;;;;;;15.86;73.80;101500.47;5045024;28;20036;-69
2022/10/10 10:44:43;;;;;;;9.95;3.70;;;;;;;15.93;73.55;101504.03;5041892;28;20178;-69
2022/10/10 10:47:33;;;;;;;13.93;4.20;;;;;;;15.93;72.64;101511.81;5041458;28;20064;-69
2022/10/10 10:50:20;;;;;;;8.75;3.70;;;;;;;15.97;73.03;101522.28;5043139;28;20032;-69
2022/10/10 10:53:07;;;;;;;8.55;3.80;;;;;;;16.03;72.77;101524.97;5045616;28;20074;-72
2022/10/10 10:55:44;;;;;;;10.45;3.75;;;;;;;16.09;72.78;101521.59;5044864;28;20039;-72
2022/10/10 10:58:30;;;;;;;9.45;3.70;;;;;;;16.26;72.86;101520.16;5047885;28;20029;-72
2022/10/10 11:00:59;;;;;;;11.13;3.58;;;;;;;16.39;71.96;101528.97;5038403;28;20037;-72
2022/10/10 11:03:42;;;;;;;12.52;3.47;;;;;;;16.44;72.34;101529.03;5050738;28;20016;-72
2022/10/10 11:06:35;;;;;;;15.73;4.45;;;;;;;16.48;71.24;101536.88;5037636;28;20048;-72
2022/10/10 11:09:06;;;;;;;17.08;4.10;;;;;;;16.47;70.77;101535.16;5038634;28;20033;-73
2022/10/10 11:11:52;;;;;;;10.35;4.00;;;;;;;16.46;71.12;101535.13;5035117;28;20028;-72
2022/10/10 11:14:21;;;;;;;9.30;3.78;;;;;;;16.61;69.99;101544.00;5050442;28;20029;-72
2022/10/10 11:16:58;;;;;;;12.05;3.80;;;;;;;16.75;69.77;101545.97;5044494;28;20556;-72
2022/10/10 11:19:31;;;;;;;10.95;4.07;;;;;;;16.98;68.95;101544.53;5047607;28;20033;-72
2022/10/10 11:22:13;;;;;;;7.75;3.78;;;;;;;17.21;69.42;101552.59;5036678;28;20025;-70
2022/10/10 11:24:47;;;;;;;12.38;3.67;;;;;;;17.46;68.86;101556.34;5040022;28;20083;-70
2022/10/10 11:27:18;;;;;;;8.80;4.32;;;;;;;17.66;68.05;101551.38;5037700;28;20024;-70
2022/10/10 11:29:58;;;;;;;11.40;4.28;;;;;;;17.91;66.50;101542.09;5045974;28;20049;-69
2022/10/10 11:32:31;;;;;;;12.93;3.80;;;;;;;18.09;65.62;101541.38;5048864;28;20498;-71
2022/10/10 11:34:57;;;;;;;11.10;4.43;;;;;;;18.23;64.17;101529.34;5049135;28;20038;-72
2022/10/10 11:37:29;;;;;;;7.88;3.97;;;;;;;18.30;63.83;101535.44;5055014;28;20091;-72